首页
METAR-TAF:

METAR-TAF

机场 :

朱諾, 阿拉斯加州, 美国

纬度: 58-21-17N, 经度: 134-34-34W, 海拔: 6米

当前天气观测

该预报发布于1小时和3分钟前的05:53 UTC
静风
温度 11°C
湿度 71%
气压 1010 hPa
能見度: 16.1公里
少量云层高于6000英尺
多云层高于10000英尺
阴天层高于30000英尺

METAR: PAJN 190553Z 00000KT 10SM FEW060 BKN100 OVC300 11/06 A2982 RMK AO2 SLP097 T01110061 10178 20106 50000

时间: 22:56 (06:56 UTC)

预报

该预报发布于1小时和35分钟前的05:21 UTC
预报有效从19日的 06点(UTC)到 20日的 06点(UTC)
风速3节,风向多变
能見度: 10公里
散云层高于10000英尺
从 19日的 1800点(UTC)
风速8节,风向西转西南
能見度: 10公里
多云层高于10000英尺

TAF: PAJN 190521Z 1906/2006 VRB03KT P6SM SCT100 FM191800 24008KT P6SM BKN100

超过4000个机场的气象观测和天气预报(METAR&TAF报告)。

可查询的气象台以黄色和红色小点在地图上表示。

将鼠标移到小点上方,可查看气象台名称。

然后点击查看天气观测和预报。

如需切换地图:点击带黑十字的绿色按钮放大地图;点击带横线的绿色按钮缩小地图;或者点击绿色箭头查看邻近地区的地图。


METAR-TAF: